createdAt,value
2024-05-09T00:00:41.050Z,94595.38
2024-05-09T00:01:38.643Z,94514.69
2024-05-09T00:02:35.617Z,94584.25
2024-05-09T00:03:32.557Z,94564.75
2024-05-09T00:04:29.480Z,94583.69
2024-05-09T00:05:26.514Z,94582.53
2024-05-09T00:06:23.388Z,94588.44
2024-05-09T00:07:20.638Z,94578.31
2024-05-09T00:08:17.658Z,94577.31
2024-05-09T00:09:14.587Z,94589.31
2024-05-09T00:10:18.315Z,94581.59
2024-05-09T00:11:23.200Z,94573.59
2024-05-09T00:12:20.290Z,94572.22
2024-05-09T00:13:17.308Z,94565.88
2024-05-09T00:14:14.552Z,94572.00
2024-05-09T00:15:11.421Z,94545.63
2024-05-09T00:16:08.335Z,94577.25
2024-05-09T00:17:05.336Z,94569.00
2024-05-09T00:18:03.248Z,94548.00
2024-05-09T00:19:00.601Z,94577.81
2024-05-09T00:19:57.503Z,94582.09
2024-05-09T00:20:54.370Z,94571.16
2024-05-09T00:21:51.222Z,94573.00
2024-05-09T00:22:48.185Z,94589.84
2024-05-09T00:23:45.216Z,94576.19
2024-05-09T00:24:42.177Z,94562.34
2024-05-09T00:25:39.357Z,94521.91
2024-05-09T00:26:36.347Z,94582.66
2024-05-09T00:27:33.214Z,94580.22
2024-05-09T00:28:30.062Z,94577.53
2024-05-09T00:29:27.188Z,94576.19
2024-05-09T00:30:31.471Z,94578.06
2024-05-09T00:31:31.968Z,94572.78
2024-05-09T00:32:28.981Z,94577.59
2024-05-09T00:33:26.191Z,94582.66
2024-05-09T00:34:24.015Z,94545.88
2024-05-09T00:35:21.360Z,94583.69
2024-05-09T00:36:18.267Z,94564.47
2024-05-09T00:37:15.151Z,94557.28
2024-05-09T00:38:12.027Z,94580.44
2024-05-09T00:39:08.886Z,94554.09
2024-05-09T00:40:09.541Z,94569.78
2024-05-09T00:41:08.905Z,94592.44
2024-05-09T00:42:05.782Z,94559.69
2024-05-09T00:43:02.773Z,94588.50
2024-05-09T00:44:00.037Z,94573.78
2024-05-09T00:44:56.970Z,94561.56
2024-05-09T00:45:56.951Z,94560.78
2024-05-09T00:46:55.468Z,94582.34
2024-05-09T00:47:52.650Z,94584.78
2024-05-09T00:48:49.917Z,94577.31
2024-05-09T00:49:47.082Z,94584.81
2024-05-09T00:50:45.392Z,94570.41
2024-05-09T00:51:43.116Z,94584.81
2024-05-09T00:52:40.856Z,94563.97
2024-05-09T00:53:37.880Z,94578.38
2024-05-09T00:54:35.189Z,94585.22
2024-05-09T00:55:32.289Z,94568.69
2024-05-09T00:56:29.439Z,94579.31
2024-05-09T00:57:27.842Z,94571.56
2024-05-09T00:58:27.679Z,94551.09
2024-05-09T00:59:25.123Z,94578.25
2024-05-09T01:00:30.542Z,94562.84
2024-05-09T01:01:32.997Z,94573.50
2024-05-09T01:02:30.072Z,94547.97
2024-05-09T01:03:27.666Z,94574.34
2024-05-09T01:04:24.879Z,94581.00
2024-05-09T01:05:21.771Z,94551.69
2024-05-09T01:06:20.919Z,94583.91
2024-05-09T01:07:17.841Z,94591.06
2024-05-09T01:08:14.921Z,94577.78
2024-05-09T01:09:11.969Z,94553.25
2024-05-09T01:10:14.060Z,94584.97
2024-05-09T01:11:18.498Z,94583.13
2024-05-09T01:12:15.544Z,94560.00
2024-05-09T01:13:12.660Z,94593.81
2024-05-09T01:14:09.695Z,94588.97
2024-05-09T01:15:06.919Z,94578.28
2024-05-09T01:16:04.924Z,94582.81
2024-05-09T01:17:01.851Z,94559.13
2024-05-09T01:18:01.682Z,94602.25
2024-05-09T01:18:59.600Z,94585.97
2024-05-09T01:19:56.589Z,94570.47
2024-05-09T01:20:53.531Z,94583.56
2024-05-09T01:21:50.406Z,94584.59
2024-05-09T01:22:47.971Z,94594.19
2024-05-09T01:23:44.871Z,94598.47
2024-05-09T01:24:41.738Z,94600.03
2024-05-09T01:25:38.609Z,94586.75
2024-05-09T01:26:35.553Z,94589.94
2024-05-09T01:27:32.453Z,94576.19
2024-05-09T01:28:29.343Z,94583.97
2024-05-09T01:29:26.529Z,94569.09
2024-05-09T01:30:33.880Z,94586.13
2024-05-09T01:31:33.067Z,94595.22
2024-05-09T01:32:30.031Z,94573.06
2024-05-09T01:33:27.376Z,94539.41
2024-05-09T01:34:25.112Z,94595.97
2024-05-09T01:35:23.699Z,94578.16
2024-05-09T01:36:20.680Z,94540.91
2024-05-09T01:37:17.519Z,94574.75
2024-05-09T01:38:17.412Z,94581.38
2024-05-09T01:39:14.484Z,94584.56
2024-05-09T01:40:15.298Z,94588.44
2024-05-09T01:41:15.466Z,94583.38
2024-05-09T01:42:12.416Z,94591.69
2024-05-09T01:43:10.716Z,94552.56
2024-05-09T01:44:08.589Z,94551.53
2024-05-09T01:45:05.806Z,94588.53
2024-05-09T01:46:02.700Z,94574.97
2024-05-09T01:46:59.607Z,94585.34
2024-05-09T01:47:56.724Z,94567.25
2024-05-09T01:48:53.794Z,94600.53
2024-05-09T01:49:50.688Z,94596.16
2024-05-09T01:50:47.660Z,94594.38
2024-05-09T01:51:44.574Z,94541.97
2024-05-09T01:52:41.432Z,94594.13
2024-05-09T01:53:38.672Z,94604.00
2024-05-09T01:54:37.299Z,94582.44
2024-05-09T01:55:34.209Z,94578.31
2024-05-09T01:56:31.144Z,94590.50
2024-05-09T01:57:28.056Z,94609.66
2024-05-09T01:58:25.084Z,94597.69
2024-05-09T01:59:21.951Z,94611.50
2024-05-09T02:00:26.371Z,94568.81
2024-05-09T02:01:31.277Z,94606.47
2024-05-09T02:02:48.145Z,94616.81
2024-05-09T02:03:46.896Z,94583.19
2024-05-09T02:04:47.754Z,94593.44
2024-05-09T02:05:46.748Z,94553.47
2024-05-09T02:06:44.272Z,94602.69
2024-05-09T02:07:41.142Z,94562.06
2024-05-09T02:08:38.154Z,94590.84
2024-05-09T02:09:35.064Z,94601.81
2024-05-09T02:10:33.148Z,94528.22
2024-05-09T02:11:30.524Z,94607.78
2024-05-09T02:12:27.469Z,94573.25
2024-05-09T02:13:24.364Z,94606.47
2024-05-09T02:14:21.351Z,94571.66
2024-05-09T02:15:18.239Z,94571.81
2024-05-09T02:16:15.174Z,94602.34
2024-05-09T02:17:12.119Z,94603.53
2024-05-09T02:18:10.293Z,94591.22
2024-05-09T02:19:07.763Z,94599.69
2024-05-09T02:20:06.229Z,94597.13
2024-05-09T02:21:03.440Z,94597.41
2024-05-09T02:22:00.402Z,94600.72
2024-05-09T02:22:57.642Z,94605.13
2024-05-09T02:23:54.576Z,94580.06
2024-05-09T02:24:51.675Z,94572.28
2024-05-09T02:25:48.661Z,94595.78
2024-05-09T02:26:45.594Z,94600.06
2024-05-09T02:27:42.491Z,94571.50
2024-05-09T02:28:39.378Z,94593.72
2024-05-09T02:29:36.275Z,94596.66
2024-05-09T02:30:40.127Z,94583.94
2024-05-09T02:31:38.672Z,94561.88
2024-05-09T02:32:35.616Z,94586.25
2024-05-09T02:33:33.146Z,94566.06
2024-05-09T02:34:30.315Z,94589.22
2024-05-09T02:35:27.400Z,94587.00
2024-05-09T02:36:24.423Z,94590.00
2024-05-09T02:37:21.267Z,94584.78
2024-05-09T02:38:18.141Z,94561.63
2024-05-09T02:39:15.029Z,94591.81
2024-05-09T02:40:14.873Z,94584.38
2024-05-09T02:41:15.080Z,94587.59
2024-05-09T02:42:11.932Z,94576.16
2024-05-09T02:43:12.666Z,94576.31
2024-05-09T02:44:10.067Z,94584.91
2024-05-09T02:45:07.412Z,94589.97
2024-05-09T02:46:04.382Z,94575.88
2024-05-09T02:47:01.302Z,94586.53
2024-05-09T02:47:58.552Z,94560.47
2024-05-09T02:48:55.695Z,94591.38
2024-05-09T02:49:52.606Z,94599.41
2024-05-09T02:50:49.642Z,94599.03
2024-05-09T02:51:46.498Z,94588.22
2024-05-09T02:52:43.355Z,94572.50
2024-05-09T02:53:40.284Z,94578.03
2024-05-09T02:54:37.185Z,94594.53
2024-05-09T02:55:34.783Z,94560.81
2024-05-09T02:56:31.705Z,94575.09
2024-05-09T02:57:28.557Z,94597.50
2024-05-09T02:58:25.385Z,94542.81
2024-05-09T02:59:22.619Z,94567.38
2024-05-09T03:00:26.270Z,94580.97
2024-05-09T03:01:31.348Z,94598.06
2024-05-09T03:02:30.962Z,94581.94
2024-05-09T03:03:28.104Z,94596.31
2024-05-09T03:04:25.176Z,94582.22
2024-05-09T03:05:22.161Z,94609.34
2024-05-09T03:06:19.043Z,94603.19
2024-05-09T03:07:17.777Z,94598.78
2024-05-09T03:08:15.878Z,94592.63
2024-05-09T03:09:12.769Z,94594.72
2024-05-09T03:10:18.004Z,94593.63
2024-05-09T03:11:23.116Z,94589.81
2024-05-09T03:12:20.085Z,94594.84
2024-05-09T03:13:17.068Z,94558.50
2024-05-09T03:14:17.438Z,94584.84
2024-05-09T03:15:14.391Z,94587.66
2024-05-09T03:16:11.252Z,94590.81
2024-05-09T03:17:08.157Z,94577.63
2024-05-09T03:18:08.875Z,94564.72
2024-05-09T03:19:06.002Z,94577.84
2024-05-09T03:20:05.221Z,94552.25
2024-05-09T03:21:03.996Z,94558.34
2024-05-09T03:22:00.925Z,94578.56
2024-05-09T03:22:57.827Z,94571.97
2024-05-09T03:23:54.740Z,94574.38
2024-05-09T03:24:51.627Z,94582.72
2024-05-09T03:25:48.522Z,94577.41
2024-05-09T03:26:45.471Z,94587.59
2024-05-09T03:27:42.358Z,94596.66
2024-05-09T03:28:39.502Z,94591.13
2024-05-09T03:29:37.532Z,94547.25
2024-05-09T03:30:40.801Z,94586.34
2024-05-09T03:31:39.803Z,94553.91
2024-05-09T03:32:36.751Z,94541.84
2024-05-09T03:33:34.229Z,94578.38
2024-05-09T03:34:31.271Z,94585.19
2024-05-09T03:35:28.270Z,94547.34
2024-05-09T03:36:25.201Z,94583.88
2024-05-09T03:37:22.068Z,94576.25
2024-05-09T03:38:19.002Z,94582.06
2024-05-09T03:39:15.896Z,94572.53
2024-05-09T03:40:20.478Z,94569.84
2024-05-09T03:41:21.169Z,94573.88
2024-05-09T03:42:18.044Z,94572.88
2024-05-09T03:43:15.577Z,94585.28
2024-05-09T03:44:12.573Z,94546.97
2024-05-09T03:45:09.457Z,94584.47
2024-05-09T03:46:06.299Z,94548.03
2024-05-09T03:47:03.364Z,94577.84
2024-05-09T03:48:00.464Z,94519.75
2024-05-09T03:48:57.805Z,94556.56
2024-05-09T03:49:54.712Z,94577.22
2024-05-09T03:50:51.758Z,94573.38
2024-05-09T03:51:48.664Z,94548.25
2024-05-09T03:52:45.559Z,94576.03
2024-05-09T03:53:42.485Z,94565.25
2024-05-09T03:54:47.582Z,94579.34
2024-05-09T03:55:44.525Z,94578.94
2024-05-09T03:56:41.458Z,94530.25
2024-05-09T03:57:38.386Z,94568.94
2024-05-09T03:58:35.293Z,94569.34
2024-05-09T03:59:32.306Z,94583.97
2024-05-09T04:00:36.907Z,94570.38
2024-05-09T04:01:35.804Z,94545.41
2024-05-09T04:02:32.870Z,94557.19
2024-05-09T04:03:29.985Z,94555.25
2024-05-09T04:04:27.078Z,94567.84
2024-05-09T04:05:25.783Z,94571.53
2024-05-09T04:06:26.846Z,94548.72
2024-05-09T04:07:23.721Z,94581.78
2024-05-09T04:08:20.629Z,94541.72
2024-05-09T04:09:17.501Z,94551.53
2024-05-09T04:10:23.667Z,94566.94
2024-05-09T04:11:24.838Z,94552.84
2024-05-09T04:12:21.777Z,94541.41
2024-05-09T04:13:18.686Z,94567.66
2024-05-09T04:14:15.578Z,94579.59
2024-05-09T04:15:13.688Z,94566.16
2024-05-09T04:16:11.341Z,94579.00
2024-05-09T04:17:08.240Z,94584.66
2024-05-09T04:18:05.694Z,94578.56
2024-05-09T04:19:02.954Z,94587.69
2024-05-09T04:19:59.945Z,94579.88
2024-05-09T04:20:56.924Z,94574.31
2024-05-09T04:21:53.840Z,94576.75
2024-05-09T04:22:50.762Z,94559.84
2024-05-09T04:23:47.710Z,94554.38
2024-05-09T04:24:44.667Z,94593.19
2024-05-09T04:25:44.060Z,94541.56
2024-05-09T04:26:41.357Z,94593.25
2024-05-09T04:27:38.250Z,94587.03
2024-05-09T04:28:35.245Z,94589.19
2024-05-09T04:29:32.365Z,94582.34
2024-05-09T04:30:36.957Z,94593.31
2024-05-09T04:31:36.896Z,94586.38
2024-05-09T04:32:33.939Z,94562.16
2024-05-09T04:33:31.131Z,94596.22
2024-05-09T04:34:28.221Z,94589.47
2024-05-09T04:35:25.310Z,94595.00
2024-05-09T04:36:22.256Z,94596.97
2024-05-09T04:37:19.081Z,94600.38
2024-05-09T04:38:16.238Z,94580.94
2024-05-09T04:39:13.295Z,94591.09
2024-05-09T04:40:20.510Z,94581.13
2024-05-09T04:41:21.186Z,94612.59
2024-05-09T04:42:18.084Z,94574.06
2024-05-09T04:43:17.534Z,94602.28
2024-05-09T04:44:14.497Z,94608.38
2024-05-09T04:45:11.394Z,94611.50
2024-05-09T04:46:08.267Z,94615.00
2024-05-09T04:47:05.258Z,94588.13
2024-05-09T04:48:02.511Z,94599.25
2024-05-09T04:48:59.765Z,94618.50
2024-05-09T04:49:56.709Z,94612.38
2024-05-09T04:50:53.600Z,94617.44
2024-05-09T04:51:50.502Z,94613.97
2024-05-09T04:52:47.440Z,94595.31
2024-05-09T04:53:44.579Z,94589.19
2024-05-09T04:54:41.501Z,94611.63
2024-05-09T04:55:39.406Z,94620.66
2024-05-09T04:56:36.903Z,94595.00
2024-05-09T04:57:33.818Z,94616.97
2024-05-09T04:58:30.659Z,94607.91
2024-05-09T04:59:27.639Z,94637.75
2024-05-09T05:00:32.524Z,94624.69
2024-05-09T05:01:33.494Z,94632.34
2024-05-09T05:02:31.877Z,94627.03
2024-05-09T05:03:29.148Z,94628.88
2024-05-09T05:04:26.244Z,94621.13
2024-05-09T05:05:23.152Z,94624.66
2024-05-09T05:06:20.398Z,94642.31
2024-05-09T05:07:17.230Z,94643.25
2024-05-09T05:08:17.222Z,94621.63
2024-05-09T05:09:15.126Z,94616.97
2024-05-09T05:10:17.711Z,94628.78
2024-05-09T05:11:18.469Z,94640.56
2024-05-09T05:12:34.012Z,94613.59
2024-05-09T05:13:31.856Z,94641.56
2024-05-09T05:14:28.902Z,94618.63
2024-05-09T05:15:25.817Z,94644.34
2024-05-09T05:16:22.668Z,94640.13
2024-05-09T05:17:19.639Z,94647.81
2024-05-09T05:18:16.967Z,94602.91
2024-05-09T05:19:16.949Z,94656.53
2024-05-09T05:20:17.978Z,94637.06
2024-05-09T05:21:21.201Z,94655.81
2024-05-09T05:22:18.159Z,94658.25
2024-05-09T05:23:16.886Z,94656.13
2024-05-09T05:24:13.828Z,94657.13
2024-05-09T05:25:10.737Z,94624.28
2024-05-09T05:26:07.628Z,94652.22
2024-05-09T05:27:04.654Z,94646.00
2024-05-09T05:28:01.528Z,94639.63
2024-05-09T05:28:58.437Z,94628.38
2024-05-09T05:29:55.296Z,94664.19
2024-05-09T05:30:52.138Z,94653.00
2024-05-09T05:31:49.109Z,94654.66
2024-05-09T05:32:46.157Z,94649.34
2024-05-09T05:33:43.279Z,94660.03
2024-05-09T05:34:40.204Z,94647.50
2024-05-09T05:35:37.392Z,94666.97
2024-05-09T05:36:34.245Z,94655.81
2024-05-09T05:37:31.125Z,94624.03
2024-05-09T05:38:28.649Z,94661.00
2024-05-09T05:39:25.687Z,94663.50
2024-05-09T05:40:31.997Z,94637.06
2024-05-09T05:41:32.828Z,94666.97
2024-05-09T05:42:29.741Z,94644.50
2024-05-09T05:43:26.783Z,94668.41
2024-05-09T05:44:23.658Z,94649.81
2024-05-09T05:45:20.577Z,94655.13
2024-05-09T05:46:17.492Z,94663.09
2024-05-09T05:47:14.588Z,94650.38
2024-05-09T05:48:13.614Z,94635.03
2024-05-09T05:49:11.005Z,94670.94
2024-05-09T05:50:20.457Z,94657.72
2024-05-09T05:51:23.818Z,94639.66
2024-05-09T05:52:20.662Z,94660.16
2024-05-09T05:53:17.556Z,94637.47
2024-05-09T05:54:14.468Z,94667.13
2024-05-09T05:55:11.351Z,94657.84
2024-05-09T05:56:08.243Z,94612.09
2024-05-09T05:57:05.178Z,94648.69
2024-05-09T05:58:02.985Z,94640.44
2024-05-09T05:58:59.925Z,94664.09
2024-05-09T05:59:56.767Z,94646.81
2024-05-09T06:00:53.885Z,94643.25
2024-05-09T06:01:51.134Z,94658.25
2024-05-09T06:02:48.231Z,94641.47
2024-05-09T06:03:45.302Z,94658.03
2024-05-09T06:04:42.797Z,94676.47
2024-05-09T06:05:40.475Z,94660.53
2024-05-09T06:06:37.838Z,94680.78
2024-05-09T06:07:34.721Z,94680.75
2024-05-09T06:08:31.573Z,94669.72
2024-05-09T06:09:28.460Z,94670.84
2024-05-09T06:10:30.197Z,94665.72
2024-05-09T06:11:34.221Z,94646.41
2024-05-09T06:12:31.134Z,94667.41
2024-05-09T06:13:28.011Z,94668.03
2024-05-09T06:14:24.871Z,94632.06
2024-05-09T06:15:21.782Z,94652.31
2024-05-09T06:16:18.646Z,94659.84
2024-05-09T06:17:15.632Z,94666.25
2024-05-09T06:18:14.364Z,94642.16
2024-05-09T06:19:11.549Z,94654.94
2024-05-09T06:20:16.626Z,94617.59
2024-05-09T06:21:20.411Z,94643.66
2024-05-09T06:22:17.491Z,94662.19
2024-05-09T06:23:14.696Z,94642.78
2024-05-09T06:24:12.091Z,94630.53
2024-05-09T06:25:08.979Z,94662.00
2024-05-09T06:26:05.937Z,94629.50
2024-05-09T06:27:03.884Z,94644.44
2024-05-09T06:28:01.467Z,94666.78
2024-05-09T06:29:01.531Z,94647.81
2024-05-09T06:29:58.494Z,94665.56
2024-05-09T06:30:55.375Z,94666.25
2024-05-09T06:31:52.409Z,94662.78
2024-05-09T06:32:49.497Z,94666.78
2024-05-09T06:33:46.650Z,94675.06
2024-05-09T06:34:43.765Z,94668.97
2024-05-09T06:35:41.117Z,94665.22
2024-05-09T06:36:41.552Z,94668.41
2024-05-09T06:37:38.426Z,94664.97
2024-05-09T06:38:35.360Z,94652.19
2024-05-09T06:39:32.348Z,94652.44
2024-05-09T06:40:37.032Z,94612.97
2024-05-09T06:41:36.735Z,94668.09
2024-05-09T06:42:33.610Z,94657.13
2024-05-09T06:43:30.453Z,94683.50
2024-05-09T06:44:27.397Z,94622.56
2024-05-09T06:45:24.374Z,94653.34
2024-05-09T06:46:21.306Z,94683.22
2024-05-09T06:47:18.209Z,94673.34
2024-05-09T06:48:15.569Z,94633.09
2024-05-09T06:49:13.746Z,94661.84
2024-05-09T06:50:16.497Z,94637.47
2024-05-09T06:51:20.315Z,94680.91
2024-05-09T06:52:17.843Z,94662.56
2024-05-09T06:53:15.751Z,94668.91
2024-05-09T06:54:12.728Z,94632.44
2024-05-09T06:55:09.848Z,94672.13
2024-05-09T06:56:07.530Z,94668.63
2024-05-09T06:57:05.314Z,94674.75
2024-05-09T06:58:02.207Z,94671.88
2024-05-09T06:58:59.092Z,94624.69
2024-05-09T06:59:59.970Z,94660.16
2024-05-09T07:00:56.893Z,94638.56
2024-05-09T07:01:53.858Z,94668.69
2024-05-09T07:02:50.869Z,94672.69
2024-05-09T07:03:48.059Z,94674.56
2024-05-09T07:04:45.255Z,94672.66
2024-05-09T07:05:43.198Z,94671.63
2024-05-09T07:06:40.231Z,94682.28
2024-05-09T07:07:37.079Z,94680.09
2024-05-09T07:08:34.331Z,94665.75
2024-05-09T07:09:31.416Z,94666.03
2024-05-09T07:10:34.118Z,94655.13
2024-05-09T07:11:33.444Z,94685.75
2024-05-09T07:12:30.732Z,94686.00
2024-05-09T07:13:28.587Z,94682.25
2024-05-09T07:14:25.669Z,94686.00
2024-05-09T07:15:22.684Z,94677.16
2024-05-09T07:16:19.579Z,94673.19
2024-05-09T07:17:17.734Z,94659.91
2024-05-09T07:18:17.897Z,94665.22
2024-05-09T07:19:18.150Z,94642.81
2024-05-09T07:20:23.488Z,94659.28
2024-05-09T07:21:28.929Z,94684.91
2024-05-09T07:22:25.853Z,94662.50
2024-05-09T07:23:22.794Z,94701.91
2024-05-09T07:24:19.687Z,94676.34
2024-05-09T07:25:16.637Z,94671.53
2024-05-09T07:26:13.839Z,94660.91
2024-05-09T07:27:10.758Z,94690.00
2024-05-09T07:28:18.536Z,94679.47
2024-05-09T07:29:15.583Z,94662.34
2024-05-09T07:30:16.659Z,94662.91
2024-05-09T07:31:20.087Z,94686.47
2024-05-09T07:32:17.106Z,94670.47
2024-05-09T07:33:19.566Z,94685.44
2024-05-09T07:34:17.751Z,94691.25
2024-05-09T07:35:14.943Z,94683.84
2024-05-09T07:36:11.924Z,94689.94
2024-05-09T07:37:12.804Z,94693.44
2024-05-09T07:38:09.841Z,94704.06
2024-05-09T07:39:06.836Z,94704.13
2024-05-09T07:40:05.823Z,94695.06
2024-05-09T07:41:02.855Z,94683.88
2024-05-09T07:42:02.625Z,94702.56
2024-05-09T07:42:59.489Z,94674.59
2024-05-09T07:43:56.413Z,94683.06
2024-05-09T07:44:53.287Z,94696.94
2024-05-09T07:45:54.085Z,94698.25
2024-05-09T07:48:13.650Z,94682.81
2024-05-09T07:49:44.798Z,94665.53
2024-05-09T07:53:08.318Z,94687.09
2024-05-09T07:53:34.650Z,94687.59
2024-05-09T07:54:04.758Z,94684.41
2024-05-09T07:55:02.457Z,94671.63
2024-05-09T07:55:59.759Z,94692.16
2024-05-09T07:56:56.904Z,94674.81
2024-05-09T07:57:53.932Z,94701.69
2024-05-09T07:58:55.751Z,94698.69
2024-05-09T07:59:52.857Z,94679.81
2024-05-09T08:00:52.754Z,94695.50
2024-05-09T08:01:50.014Z,94703.78
2024-05-09T08:02:47.028Z,94668.38
2024-05-09T08:03:44.928Z,94677.19
2024-05-09T08:04:42.096Z,94705.19
2024-05-09T08:05:39.174Z,94687.09
2024-05-09T08:06:41.596Z,94705.22
2024-05-09T08:07:44.500Z,94621.28
2024-05-09T08:08:41.465Z,94663.09
2024-05-09T08:09:40.078Z,94694.47
2024-05-09T08:10:37.318Z,94667.50
2024-05-09T08:11:34.477Z,94693.91
2024-05-09T08:12:31.738Z,94674.22
2024-05-09T08:13:28.645Z,94681.19
2024-05-09T08:14:25.603Z,94687.59
2024-05-09T08:15:24.705Z,94672.91
2024-05-09T08:16:21.853Z,94687.00
2024-05-09T08:17:18.912Z,94704.34
2024-05-09T08:18:17.394Z,94692.13
2024-05-09T08:19:14.495Z,94700.91
2024-05-09T08:20:22.531Z,94709.41
2024-05-09T08:21:23.795Z,94694.78
2024-05-09T08:22:22.285Z,94707.84
2024-05-09T08:23:19.334Z,94688.09
2024-05-09T08:24:17.606Z,94690.50
2024-05-09T08:25:14.694Z,94706.50
2024-05-09T08:26:11.926Z,94688.09
2024-05-09T08:27:09.045Z,94708.63
2024-05-09T08:28:07.356Z,94697.97
2024-05-09T08:29:04.311Z,94704.00
2024-05-09T08:30:01.404Z,94687.50
2024-05-09T08:31:06.969Z,94695.50
2024-05-09T08:32:12.352Z,94667.84
2024-05-09T08:33:10.479Z,94697.13
2024-05-09T08:34:09.404Z,94680.91
2024-05-09T08:35:06.832Z,94704.63
2024-05-09T08:36:03.997Z,94705.94
2024-05-09T08:37:13.016Z,94704.59
2024-05-09T08:38:17.614Z,94700.50
2024-05-09T08:39:14.726Z,94715.91
2024-05-09T08:40:23.502Z,94704.69
2024-05-09T08:41:25.280Z,94710.38
2024-05-09T08:42:23.689Z,94680.59
2024-05-09T08:43:20.861Z,94684.03
2024-05-09T08:44:20.271Z,94654.66
2024-05-09T08:45:17.813Z,94713.88
2024-05-09T08:46:15.644Z,94705.72
2024-05-09T08:47:13.383Z,94709.78
2024-05-09T08:48:19.402Z,94688.25
2024-05-09T08:49:16.776Z,94696.75
2024-05-09T08:50:28.399Z,94693.91
2024-05-09T08:51:32.855Z,94690.69
2024-05-09T08:52:29.821Z,94691.91
2024-05-09T08:53:26.747Z,94704.53
2024-05-09T08:54:23.775Z,94689.59
2024-05-09T08:55:20.844Z,94706.59
2024-05-09T08:56:21.940Z,94699.31
2024-05-09T08:57:22.757Z,94710.56
2024-05-09T08:58:20.379Z,94711.91
2024-05-09T08:59:27.966Z,94704.53
2024-05-09T09:00:33.873Z,94713.94
2024-05-09T09:01:38.036Z,94698.03
2024-05-09T09:02:38.242Z,94677.13
2024-05-09T09:03:37.723Z,94712.25
2024-05-09T09:04:40.778Z,94709.69
2024-05-09T09:05:40.036Z,94713.59
2024-05-09T09:06:37.789Z,94709.03
2024-05-09T09:07:37.956Z,94706.81
2024-05-09T09:08:37.540Z,94688.63
2024-05-09T09:09:43.554Z,94712.69
2024-05-09T09:10:43.515Z,94713.66
2024-05-09T09:11:40.531Z,94697.72
2024-05-09T09:12:37.538Z,94698.97
2024-05-09T09:13:34.451Z,94698.25
2024-05-09T09:14:31.363Z,94678.78
2024-05-09T09:15:28.337Z,94697.19
2024-05-09T09:16:34.967Z,94726.59
2024-05-09T09:17:32.012Z,94698.16
2024-05-09T09:18:30.697Z,94690.13
2024-05-09T09:19:28.149Z,94708.88
2024-05-09T09:20:36.381Z,94692.78
2024-05-09T09:21:34.107Z,94702.97
2024-05-09T09:22:34.355Z,94702.84
2024-05-09T09:23:31.345Z,94708.50
2024-05-09T09:24:28.337Z,94692.97
2024-05-09T09:25:25.494Z,94700.16
2024-05-09T09:26:23.277Z,94707.13
2024-05-09T09:27:20.166Z,94697.22
2024-05-09T09:28:17.323Z,94694.09
2024-05-09T09:29:19.996Z,94705.16
2024-05-09T09:30:30.849Z,94698.19
2024-05-09T09:31:32.433Z,94679.41
2024-05-09T09:32:30.117Z,94701.56
2024-05-09T09:33:31.347Z,94714.94
2024-05-09T09:34:28.874Z,94700.09
2024-05-09T09:35:26.992Z,94710.19
2024-05-09T09:36:23.933Z,94703.16
2024-05-09T09:37:28.471Z,94671.69
2024-05-09T09:38:31.505Z,94670.31
2024-05-09T09:39:32.110Z,94693.84
2024-05-09T09:40:37.277Z,94689.31
2024-05-09T09:41:39.051Z,94681.84
2024-05-09T09:42:37.949Z,94710.09
2024-05-09T09:43:37.122Z,94716.81
2024-05-09T09:44:34.247Z,94687.00
2024-05-09T09:45:36.233Z,94681.06
2024-05-09T09:46:34.283Z,94725.00
2024-05-09T09:47:32.271Z,94687.16
2024-05-09T09:48:31.795Z,94699.41
2024-05-09T09:49:32.958Z,94710.56
2024-05-09T09:50:34.464Z,94714.81
2024-05-09T09:51:33.411Z,94694.38
2024-05-09T09:52:30.374Z,94698.88
2024-05-09T09:53:32.326Z,94716.53
2024-05-09T09:54:30.176Z,94690.84
2024-05-09T09:55:28.542Z,94711.06
2024-05-09T09:56:26.748Z,94705.25
2024-05-09T09:57:24.980Z,94702.00
2024-05-09T09:58:23.951Z,94696.75
2024-05-09T09:59:21.943Z,94701.81
2024-05-09T10:00:27.190Z,94719.41
2024-05-09T10:01:29.362Z,94704.75
2024-05-09T10:02:26.434Z,94645.69
2024-05-09T10:03:23.463Z,94710.78
2024-05-09T10:04:20.631Z,94715.31
2024-05-09T10:05:17.787Z,94696.34
2024-05-09T10:06:17.740Z,94684.41
2024-05-09T10:07:18.625Z,94675.63
2024-05-09T10:08:18.275Z,94713.31
2024-05-09T10:09:18.203Z,94697.13
2024-05-09T10:10:30.026Z,94692.22
2024-05-09T10:11:37.007Z,94728.44
2024-05-09T10:12:36.614Z,94706.66
2024-05-09T10:13:35.314Z,94700.09
2024-05-09T10:14:40.906Z,94687.50
2024-05-09T10:15:47.185Z,94677.41
2024-05-09T10:16:44.531Z,94686.44
2024-05-09T10:17:51.288Z,94703.97
2024-05-09T10:18:48.476Z,94687.03
2024-05-09T10:19:46.270Z,94671.03
2024-05-09T10:20:46.863Z,94701.84
2024-05-09T10:21:47.136Z,94708.81
2024-05-09T10:22:50.471Z,94718.97
2024-05-09T10:23:57.823Z,94711.69
2024-05-09T10:25:05.380Z,94706.69
2024-05-09T10:26:05.383Z,94716.28
2024-05-09T10:27:04.293Z,94694.97
2024-05-09T10:28:03.206Z,94695.03
2024-05-09T10:29:03.473Z,94701.94
2024-05-09T10:30:06.757Z,94705.66
2024-05-09T10:31:13.304Z,94683.03
2024-05-09T10:32:11.874Z,94714.63
2024-05-09T10:33:11.335Z,94698.91
2024-05-09T10:34:09.762Z,94677.00
2024-05-09T10:35:15.142Z,94696.06
2024-05-09T10:36:25.634Z,94689.13
2024-05-09T10:37:23.146Z,94669.47
2024-05-09T10:38:20.393Z,94705.16
2024-05-09T10:39:19.227Z,94712.53
2024-05-09T10:40:23.505Z,94699.50
2024-05-09T10:41:26.028Z,94665.31
2024-05-09T10:42:24.364Z,94701.09
2024-05-09T10:43:23.271Z,94710.97
2024-05-09T10:44:21.753Z,94712.78
2024-05-09T10:45:18.664Z,94680.03
2024-05-09T10:46:16.386Z,94669.41
2024-05-09T10:47:13.602Z,94708.63
2024-05-09T10:48:10.692Z,94714.06
2024-05-09T10:49:08.823Z,94701.69
2024-05-09T10:50:12.741Z,94713.16
2024-05-09T10:51:16.726Z,94709.44
2024-05-09T10:52:13.716Z,94690.50
2024-05-09T10:53:10.622Z,94700.75
2024-05-09T10:54:07.936Z,94674.00
2024-05-09T10:55:14.590Z,94703.41
2024-05-09T10:56:23.669Z,94661.94
2024-05-09T10:57:23.356Z,94676.78
2024-05-09T10:58:20.448Z,94707.72
2024-05-09T10:59:17.388Z,94708.13
2024-05-09T11:00:23.238Z,94689.88
2024-05-09T11:01:28.138Z,94683.63
2024-05-09T11:02:25.557Z,94688.56
2024-05-09T11:03:26.411Z,94694.44
2024-05-09T11:04:23.517Z,94692.91
2024-05-09T11:05:21.676Z,94652.66
2024-05-09T11:06:18.789Z,94699.00
2024-05-09T11:07:19.079Z,94701.34
2024-05-09T11:08:17.091Z,94698.13
2024-05-09T11:09:14.849Z,94701.06
2024-05-09T11:10:14.573Z,94695.50
2024-05-09T11:11:12.798Z,94650.78
2024-05-09T11:12:10.750Z,94692.38
2024-05-09T11:13:07.791Z,94681.41
2024-05-09T11:14:13.767Z,94701.44
2024-05-09T11:15:10.691Z,94697.25
2024-05-09T11:16:20.612Z,94696.72
2024-05-09T11:17:17.993Z,94673.50
2024-05-09T11:18:27.206Z,94707.88
2024-05-09T11:19:30.989Z,94665.22
2024-05-09T11:20:38.980Z,94681.75
2024-05-09T11:21:36.085Z,94652.44
2024-05-09T11:22:33.615Z,94684.44
2024-05-09T11:23:30.968Z,94694.03
2024-05-09T11:24:29.909Z,94692.69
2024-05-09T11:25:26.880Z,94660.69
2024-05-09T11:26:25.421Z,94701.47
2024-05-09T11:27:23.766Z,94683.38
2024-05-09T11:28:21.756Z,94691.63
2024-05-09T11:29:19.659Z,94696.66
2024-05-09T11:31:20.836Z,94681.50
2024-05-09T11:32:29.547Z,94678.78
2024-05-09T11:33:28.993Z,94684.38
2024-05-09T11:34:26.039Z,94683.78